Flood From: 18-02-2018 10:00 Until: 19-02-2018 06:00 warning for: Flood Level: Yellow info button

Although rather usual in this region, locally or potentially dangerous phenomena are expected. (such as local winds, summer thunderstorms, rising streams or high waves) Be aware and pay attention to the latest weather updates, especially if you carry out activities exposed to weather or close to a stream or shoreline. 


Meteo18 Weather Cam more information Meteo18 Weather Cam


Thunder radar more information blitzortung!


Rain radar more information rain snow radar


Visit our other weather sites:

Template documentation
and downloads

And another site



Weather Underground History page Text

Daily Summary for March 28, 2017 Units:  Metric    English   Both
« Previous Day
Next Day »
Daily Weekly Monthly Yearly Custom
  High: Low: Average:
Temperature: -17.8 °C -13.5 °C -10.8 °C
Dew Point: -17.8 °C -15.4 °C -13.8 °C
Humidity: Humidity % 51 % 70 %
Wind Speed: 0 km/h 0 km/h 7.4 km/h
Wind Gust: 0 km/h - -
Wind:- - WSW
Pressure: 0 hPa 34567.7 hPa -
Precipitation: 0 mm    
Historical Graphs
 
 
Tabular Data for March 28, 2017
Time Temperature Dew Point Pressure Wind Wind Speed Wind Gust Humidity Rainfall Rate (Hourly)
-17.8 °C -17.8 °C 0 hPa Calm     Humidity % 0 mm
00:12 -12.1 °C -14.8 °C 34567.7 hPa WNW 2.6 km/h 5.1 km/h 71 % 0 mm
00:17 -12.1 °C -14.8 °C 34577.8 hPa WNW 2.6 km/h 5.1 km/h 72 % 0 mm
00:22 -12.2 °C -14.9 °C 34577.8 hPa WNW 5.1 km/h 5.1 km/h 72 % 0 mm
00:32 -12.2 °C -14.9 °C 34577.8 hPa WNW 5.1 km/h 7.7 km/h 71 % 0 mm
00:37 -12.3 °C -14.9 °C 34577.8 hPa WNW 2.6 km/h 7.7 km/h 72 % 0 mm
00:42 -12.4 °C -14.9 °C 34577.8 hPa WNW 2.6 km/h 7.7 km/h 73 % 0 mm
00:52 -12.4 °C -15 °C 34577.8 hPa Calm   5.1 km/h 73 % 0 mm
01:02 -12.6 °C -15.1 °C 34577.8 hPa Calm   2.6 km/h 74 % 0 mm
01:12 -12.4 °C -15.1 °C 34577.8 hPa Calm   2.6 km/h 72 % 0 mm
01:17 -12.4 °C -15.1 °C 34577.8 hPa Calm   2.6 km/h 72 % 0 mm
01:22 -12.8 °C -15.2 °C 34577.8 hPa West 2.6 km/h 2.6 km/h 75 % 0 mm
01:32 -12.8 °C -15.2 °C 34591.4 hPa Calm   5.1 km/h 75 % 0 mm
01:37 -12.7 °C -15.1 °C 34591.4 hPa Calm   7.7 km/h 74 % 0 mm
01:42 -12.6 °C -15.1 °C 34591.4 hPa NNE 7.7 km/h 7.7 km/h 73 % 0 mm
01:47 -12.7 °C -15.1 °C 34591.4 hPa Calm   7.7 km/h 74 % 0 mm
01:52 -12.9 °C -15.2 °C 34591.4 hPa Calm   7.7 km/h 75 % 0 mm
01:57 -12.9 °C -15.2 °C 34591.4 hPa Calm   7.7 km/h 75 % 0 mm
02:02 -13.1 °C -15.3 °C 34591.4 hPa Calm   7.7 km/h 76 % 0 mm
02:07 -12.9 °C -15.1 °C 34591.4 hPa NE 7.7 km/h 7.7 km/h 76 % 0 mm
02:12 -12.7 °C -15.2 °C 34591.4 hPa ENE 5.1 km/h 5.1 km/h 74 % 0 mm
02:17 -12.8 °C -15.3 °C 34591.4 hPa Calm   10.3 km/h 74 % 0 mm
02:22 -13.2 °C -15.4 °C 34601.5 hPa West 5.1 km/h 10.3 km/h 76 % 0 mm
02:32 -13.5 °C -15.4 °C 34611.7 hPa SW 10.3 km/h 10.3 km/h 79 % 0 mm
02:37 -13.2 °C -15.1 °C 34611.7 hPa SW 7.7 km/h 28.5 km/h 79 % 0 mm
02:42 -12.9 °C -15.1 °C 34611.7 hPa SE 2.6 km/h 28.5 km/h 77 % 0 mm
02:47 -12.9 °C -15.1 °C 34611.7 hPa Calm   28.5 km/h 77 % 0 mm
02:52 -12.9 °C -15.2 °C 34611.7 hPa Calm   18.2 km/h 76 % 0 mm
02:57 -13 °C -15 °C 34611.7 hPa West 2.6 km/h 7.7 km/h 78 % 0 mm
03:02 -12.7 °C -14.9 °C 34601.5 hPa WNW 2.6 km/h 5.1 km/h 76 % 0 mm
03:12 -13 °C -15.1 °C 34611.7 hPa NE 5.1 km/h 5.1 km/h 77 % 0 mm
03:17 -13.1 °C -15.1 °C 34611.7 hPa Calm   5.1 km/h 78 % 0 mm
03:22 -13.1 °C -15 °C 34611.7 hPa ESE 2.6 km/h 5.1 km/h 79 % 0 mm
03:32 -13.1 °C -15.1 °C 34611.7 hPa Calm   5.1 km/h 78 % 0 mm
03:37 -13.1 °C -15 °C 34611.7 hPa Calm   2.6 km/h 79 % 0 mm
03:42 -13.2 °C -15.1 °C 34611.7 hPa Calm   2.6 km/h 79 % 0 mm
03:47 -13.2 °C -15 °C 34611.7 hPa Calm     80 % 0 mm
03:52 -13.3 °C -15.1 °C 34611.7 hPa Calm     80 % 0 mm
03:57 -13.3 °C -15.1 °C 34611.7 hPa Calm     80 % 0 mm
04:02 -13.3 °C -15.1 °C 34611.7 hPa Calm   2.6 km/h 80 % 0 mm
04:12 -13.4 °C -15.1 °C 34611.7 hPa Calm   2.6 km/h 81 % 0 mm
04:17 -13.4 °C -15.1 °C 34611.7 hPa South 2.6 km/h 2.6 km/h 81 % 0 mm
04:22 -13.4 °C -15.2 °C 34611.7 hPa Calm   5.1 km/h 81 % 0 mm
04:27 -13.5 °C -15.1 °C 34625.2 hPa Calm   5.1 km/h 82 % 0 mm
04:32 -13.4 °C -14.9 °C 34625.2 hPa SSW 2.6 km/h 5.1 km/h 83 % 0 mm
04:37 -13.3 °C -14.8 °C 34625.2 hPa SSW 7.7 km/h 7.7 km/h 83 % 0 mm
04:42 -13.1 °C -14.7 °C 34625.2 hPa SW 7.7 km/h 7.7 km/h 82 % 0 mm
04:47 -12.9 °C -14.6 °C 34625.2 hPa SW 7.7 km/h 18.2 km/h 81 % 0 mm
04:52 -12.8 °C -14.6 °C 34625.2 hPa SW 5.1 km/h 18.2 km/h 81 % 0 mm
04:57 -12.7 °C -14.6 °C 34625.2 hPa Calm   18.2 km/h 80 % 0 mm
05:02 -12.9 °C -14.7 °C 34625.2 hPa Calm   15.6 km/h 80 % 0 mm
05:12 -13.2 °C -14.8 °C 34635.4 hPa Calm   5.1 km/h 82 % 0 mm
05:17 -13.2 °C -14.8 °C 34635.4 hPa Calm   5.1 km/h 82 % 0 mm
05:27 -13.3 °C -14.7 °C 34635.4 hPa SSW 2.6 km/h 2.6 km/h 84 % 0 mm
05:32 -13.2 °C -14.6 °C 34635.4 hPa South 2.6 km/h 10.3 km/h 84 % 0 mm
05:42 -12.9 °C -14.4 °C 34635.4 hPa South 5.1 km/h 10.3 km/h 83 % 0 mm
05:52 -12.7 °C -14.3 °C 34635.4 hPa SW 7.7 km/h 18.2 km/h 82 % 0 mm
06:02 -12.4 °C -14.1 °C 34635.4 hPa West 2.6 km/h 18.2 km/h 81 % 0 mm
06:12 -12.3 °C -14 °C 34645.6 hPa WSW 2.6 km/h 18.2 km/h 81 % 0 mm
06:17 -12.3 °C -14.1 °C 34645.6 hPa SW 2.6 km/h 18.2 km/h 81 % 0 mm
06:22 -12.4 °C -14.1 °C 34645.6 hPa SE 2.6 km/h 7.7 km/h 81 % 0 mm
06:32 -12.6 °C -14.1 °C 34645.6 hPa Calm   7.7 km/h 83 % 0 mm
06:37 -12.7 °C -14.2 °C 34645.6 hPa Calm   5.1 km/h 83 % 0 mm
06:42 -12.7 °C -14.2 °C 34645.6 hPa Calm   5.1 km/h 84 % 0 mm
06:47 -12.8 °C -14.1 °C 34645.6 hPa SSW 7.7 km/h 7.7 km/h 85 % 0 mm
06:52 -12.7 °C -14.1 °C 34645.6 hPa SW 7.7 km/h 12.9 km/h 84 % 0 mm
07:02 -12.3 °C -14.1 °C 34645.6 hPa SW 5.1 km/h 12.9 km/h 81 % 0 mm
07:07 -12.2 °C -14.1 °C 34645.6 hPa WSW 2.6 km/h 12.9 km/h 80 % 0 mm
07:12 -12.2 °C -14.1 °C 34645.6 hPa Calm   10.3 km/h 79 % 0 mm
07:17 -12.2 °C -14.1 °C 34645.6 hPa Calm   10.3 km/h 79 % 0 mm
07:22 -12.3 °C -14.2 °C 34659.1 hPa Calm   5.1 km/h 80 % 0 mm
07:32 -12.8 °C -14.3 °C 34659.1 hPa SSE 2.6 km/h 7.7 km/h 83 % 0 mm
07:42 -13.2 °C -14.4 °C 34659.1 hPa SW 2.6 km/h 7.7 km/h 86 % 0 mm
07:52 -13 °C -14.4 °C 34669.3 hPa Calm   7.7 km/h 84 % 0 mm
07:57 -13.1 °C -14.5 °C 34669.3 hPa SSW 2.6 km/h 7.7 km/h 84 % 0 mm
08:02 -13.2 °C -14.6 °C 34669.3 hPa SW 2.6 km/h 7.7 km/h 84 % 0 mm
08:07 -13.4 °C -14.7 °C 34669.3 hPa Calm   7.7 km/h 85 % 0 mm
08:12 -13.4 °C -14.7 °C 34669.3 hPa Calm   5.1 km/h 86 % 0 mm
08:17 -13.4 °C -14.6 °C 34682.8 hPa Calm   5.1 km/h 87 % 0 mm
08:22 -13.3 °C -14.4 °C 34682.8 hPa Calm     87 % 0 mm
08:32 -13.2 °C -14.3 °C 34682.8 hPa ESE 2.6 km/h 5.1 km/h 87 % 0 mm
08:37 -13.2 °C -14.3 °C 34693 hPa Calm   5.1 km/h 87 % 0 mm
08:42 -12.9 °C -14.1 °C 34693 hPa Calm   5.1 km/h 87 % 0 mm
08:52 -12.6 °C -13.9 °C 34693 hPa Calm   2.6 km/h 85 % 0 mm
08:57 -12.6 °C -14.1 °C 34693 hPa Calm   2.6 km/h 84 % 0 mm
09:02 -12.4 °C -13.7 °C 34693 hPa Calm     85 % 0 mm
09:12 -12 °C -13.7 °C 34703.1 hPa Calm     81 % 0 mm
09:22 -11.9 °C -13.4 °C 34703.1 hPa ESE 5.1 km/h   83 % 0 mm
09:32 -11.2 °C -12.8 °C 34703.1 hPa Calm   7.7 km/h 82 % 0 mm
09:42 -10.9 °C -13.1 °C 34703.1 hPa West 15.6 km/h 20.8 km/h 77 % 0 mm
09:47 -10.9 °C -13.2 °C 34703.1 hPa West 12.9 km/h 20.8 km/h 76 % 0 mm
09:57 -10.8 °C -12.9 °C 34716.7 hPa West 5.1 km/h 25.9 km/h 77 % 0 mm
10:02 -10.7 °C -13 °C 34716.7 hPa SW 7.7 km/h 25.9 km/h 76 % 0 mm
10:12 -10.6 °C -13 °C 34716.7 hPa SW 5.1 km/h 18.2 km/h 75 % 0 mm
10:17 -10.5 °C -12.9 °C 34716.7 hPa SSW 5.1 km/h 18.2 km/h 75 % 0 mm
10:22 -10.5 °C -13 °C 34716.7 hPa SW 5.1 km/h 18.2 km/h 74 % 0 mm
10:32 -10.4 °C -12.8 °C 34716.7 hPa West 2.6 km/h 15.6 km/h 75 % 0 mm
10:42 -10.2 °C -12.8 °C 34726.8 hPa West 10.3 km/h 12.9 km/h 73 % 0 mm
10:47 -10.1 °C -13 °C 34726.8 hPa West 23.3 km/h 23.3 km/h 71 % 0 mm
10:52 -10.2 °C -13.1 °C 34726.8 hPa WSW 18.2 km/h 25.9 km/h 71 % 0 mm
11:02 -10.2 °C -13.1 °C 34726.8 hPa West 12.9 km/h 28.5 km/h 71 % 0 mm
11:17 -10.1 °C -12.6 °C 34740.4 hPa South 5.1 km/h 23.3 km/h 74 % 0 mm
11:22 -10 °C -13 °C 34740.4 hPa WSW 10.3 km/h 18.2 km/h 70 % 0 mm
11:27 -10 °C -12.9 °C 34740.4 hPa WSW 7.7 km/h 18.2 km/h 71 % 0 mm
11:32 -9.9 °C -12.9 °C 34740.4 hPa West 15.6 km/h 18.2 km/h 70 % 0 mm
11:37 -9.9 °C -13 °C 34740.4 hPa WSW 18.2 km/h 18.2 km/h 69 % 0 mm
11:42 -9.8 °C -13.2 °C 34740.4 hPa SW 5.1 km/h 25.9 km/h 67 % 0 mm
11:52 -9.8 °C -13.3 °C 34740.4 hPa SW 12.9 km/h 25.9 km/h 66 % 0 mm
11:57 -9.7 °C -13.1 °C 34740.4 hPa WSW 20.8 km/h 25.9 km/h 67 % 0 mm
12:02 -9.6 °C -13.1 °C 34740.4 hPa West 7.7 km/h 23.3 km/h 66 % 0 mm
12:12 -9.4 °C -12.9 °C 34740.4 hPa SE 5.1 km/h 23.3 km/h 66 % 0 mm
12:17 -9.2 °C -12.4 °C 34750.5 hPa West 7.7 km/h 23.3 km/h 69 % 0 mm
12:22 -8.8 °C -12.7 °C 34740.4 hPa West 15.6 km/h 18.2 km/h 63 % 0 mm
12:32 -9 °C -13.2 °C 34750.5 hPa WNW 15.6 km/h 18.2 km/h 61 % 0 mm
12:37 -9 °C -12.8 °C 34750.5 hPa West 15.6 km/h 23.3 km/h 64 % 0 mm
12:42 -9.1 °C -12.9 °C 34750.5 hPa WSW 15.6 km/h 23.3 km/h 63 % 0 mm
12:47 -9.3 °C -12.9 °C 34750.5 hPa West 20.8 km/h 23.3 km/h 65 % 0 mm
12:52 -9.3 °C -12.7 °C 34750.5 hPa WNW 15.6 km/h 33.6 km/h 67 % 0 mm
13:02 -9.2 °C -12.8 °C 34750.5 hPa West 18.2 km/h 33.6 km/h 65 % 0 mm
13:12 -9.3 °C -13.2 °C 34750.5 hPa WNW 23.3 km/h 38.8 km/h 63 % 0 mm
13:17 -9.4 °C -13.2 °C 34750.5 hPa WNW 18.2 km/h 38.8 km/h 64 % 0 mm
13:22 -9.4 °C -13.2 °C 34750.5 hPa WNW 10.3 km/h 28.5 km/h 64 % 0 mm
13:27 -9.2 °C -12.8 °C 34750.5 hPa NNW 15.6 km/h 28.5 km/h 65 % 0 mm
13:32 -9.1 °C -13.1 °C 34750.5 hPa West 12.9 km/h 25.9 km/h 62 % 0 mm
13:42 -9.1 °C -12.8 °C 34750.5 hPa WNW 15.6 km/h 25.9 km/h 64 % 0 mm
13:52 -9 °C -12.8 °C 34750.5 hPa WSW 20.8 km/h 33.6 km/h 64 % 0 mm
14:02 -9 °C -13.2 °C 34750.5 hPa WSW 15.6 km/h 31.1 km/h 61 % 0 mm
14:12 -9.1 °C -13.1 °C 34750.5 hPa WSW 5.1 km/h 33.6 km/h 62 % 0 mm
14:17 -9.1 °C -13.2 °C 34750.5 hPa West 15.6 km/h 33.6 km/h 61 % 0 mm
14:22 -9 °C -13.4 °C 34750.5 hPa West 20.8 km/h 31.1 km/h 59 % 0 mm
14:32 -8.7 °C -12.8 °C 34740.4 hPa WSW 20.8 km/h 31.1 km/h 62 % 0 mm
14:37 -8.7 °C -13.1 °C 34750.5 hPa SW 15.6 km/h 28.5 km/h 59 % 0 mm
14:47 -8.4 °C -12.7 °C 34740.4 hPa WSW 12.9 km/h 28.5 km/h 60 % 0 mm
14:52 -8.3 °C -13.3 °C 34740.4 hPa WSW 15.6 km/h 28.5 km/h 55 % 0 mm
14:57 -8.6 °C -13 °C 34740.4 hPa WSW 28.5 km/h 38.8 km/h 59 % 0 mm
15:02 -8.8 °C -13.1 °C 34740.4 hPa West 12.9 km/h 38.8 km/h 60 % 0 mm
15:12 -8.6 °C -13.2 °C 34740.4 hPa South 12.9 km/h 38.8 km/h 58 % 0 mm
15:17 -8.6 °C -13.1 °C 34740.4 hPa WSW 12.9 km/h 33.6 km/h 59 % 0 mm
15:22 -8.6 °C -12.9 °C 34740.4 hPa WSW 7.7 km/h 33.6 km/h 60 % 0 mm
15:32 -8.4 °C -13.2 °C 34740.4 hPa SW 23.3 km/h 31.1 km/h 57 % 0 mm
15:42 -8.2 °C -13.2 °C 34740.4 hPa South 2.6 km/h 33.6 km/h 55 % 0 mm
15:52 -8.2 °C -12.9 °C 34740.4 hPa SW 28.5 km/h 36.2 km/h 57 % 0 mm
15:57 -8.1 °C -12.9 °C 34740.4 hPa SW 18.2 km/h 41.4 km/h 57 % 0 mm
16:02 -8.2 °C -13.1 °C 34740.4 hPa West 15.6 km/h 41.4 km/h 56 % 0 mm
16:12 -8.2 °C -13.1 °C 34740.4 hPa SW 23.3 km/h 33.6 km/h 56 % 0 mm
16:17 -8.2 °C -13.2 °C 34740.4 hPa West 18.2 km/h 36.2 km/h 56 % 0 mm
16:22 -8.1 °C -13.1 °C 34740.4 hPa West 15.6 km/h 36.2 km/h 56 % 0 mm
16:27 -8.1 °C -13.2 °C 34740.4 hPa WSW 28.5 km/h 36.2 km/h 55 % 0 mm
16:32 -8.2 °C -12.9 °C 34740.4 hPa WSW 12.9 km/h 36.2 km/h 57 % 0 mm
16:37 -8.1 °C -12.9 °C 34740.4 hPa WSW 28.5 km/h 36.2 km/h 57 % 0 mm
16:42 -8.2 °C -12.8 °C 34740.4 hPa West 15.6 km/h 36.2 km/h 58 % 0 mm
16:47 -8.3 °C -13.2 °C 34740.4 hPa WSW 12.9 km/h 36.2 km/h 56 % 0 mm
16:52 -8.3 °C -13.2 °C 34740.4 hPa West 20.8 km/h 33.6 km/h 56 % 0 mm
16:57 -8.2 °C -13.1 °C 34740.4 hPa SW 33.6 km/h 36.2 km/h 56 % 0 mm
17:02 -8.2 °C -13.2 °C 34740.4 hPa West 18.2 km/h 36.2 km/h 56 % 0 mm
17:12 -8.3 °C -12.9 °C 34740.4 hPa West 18.2 km/h 41.4 km/h 58 % 0 mm
17:17 -8.2 °C -12.7 °C 34740.4 hPa WNW 12.9 km/h 41.4 km/h 59 % 0 mm
17:22 -8.2 °C -13.2 °C 34726.8 hPa West 20.8 km/h 31.1 km/h 56 % 0 mm
17:27 -8.2 °C -13.3 °C 34726.8 hPa WSW 20.8 km/h 31.1 km/h 55 % 0 mm
17:32 -8.2 °C -13.2 °C 34740.4 hPa West 10.3 km/h 31.1 km/h 55 % 0 mm
17:42 -8.2 °C -13.1 °C 34726.8 hPa WSW 10.3 km/h 31.1 km/h 56 % 0 mm
17:52 -7.9 °C -13.7 °C 34726.8 hPa SW 25.9 km/h 31.1 km/h 51 % 0 mm
17:57 -8 °C -13.4 °C 34740.4 hPa WSW 15.6 km/h 28.5 km/h 53 % 0 mm
18:02 -8 °C -13.4 °C 34740.4 hPa West 18.2 km/h 28.5 km/h 53 % 0 mm
18:12 -8 °C -13.2 °C 34740.4 hPa West 10.3 km/h 28.5 km/h 54 % 0 mm
18:17 -7.9 °C -13.2 °C 34740.4 hPa West 15.6 km/h 25.9 km/h 54 % 0 mm
18:22 -8 °C -13.4 °C 34740.4 hPa West 18.2 km/h 25.9 km/h 53 % 0 mm
18:32 -8.1 °C -13.4 °C 34740.4 hPa WNW 10.3 km/h 25.9 km/h 53 % 0 mm
18:37 -8.1 °C -13.4 °C 34740.4 hPa WSW 18.2 km/h 25.9 km/h 53 % 0 mm
18:42 -8.1 °C -13.3 °C 34740.4 hPa SW 12.9 km/h 25.9 km/h 54 % 0 mm
18:47 -8 °C -13.4 °C 34740.4 hPa WSW 15.6 km/h 28.5 km/h 53 % 0 mm
18:52 -8 °C -13.2 °C 34740.4 hPa WNW 10.3 km/h 28.5 km/h 54 % 0 mm
18:57 -8 °C -13.4 °C 34740.4 hPa WSW 18.2 km/h 25.9 km/h 53 % 0 mm
19:02 -8.1 °C -13.3 °C 34740.4 hPa WSW 10.3 km/h 25.9 km/h 54 % 0 mm
19:12 -8.1 °C -13.3 °C 34740.4 hPa SSW 10.3 km/h 28.5 km/h 54 % 0 mm
19:17 -8.1 °C -13.3 °C 34740.4 hPa WSW 5.1 km/h 28.5 km/h 54 % 0 mm
19:22 -8.1 °C -13.3 °C 34750.5 hPa West 10.3 km/h 23.3 km/h 54 % 0 mm
19:27 -8.2 °C -13.3 °C 34750.5 hPa SSE 5.1 km/h 15.6 km/h 55 % 0 mm
19:32 -8.3 °C -13.3 °C 34750.5 hPa West 7.7 km/h 18.2 km/h 55 % 0 mm
19:42 -8.4 °C -13.3 °C 34750.5 hPa SW 12.9 km/h 18.2 km/h 56 % 0 mm
19:47 -8.4 °C -13.2 °C 34750.5 hPa SW 10.3 km/h 23.3 km/h 57 % 0 mm
19:52 -8.6 °C -13.3 °C 34750.5 hPa WSW 7.7 km/h 15.6 km/h 57 % 0 mm
19:57 -8.7 °C -13.3 °C 34750.5 hPa SW 7.7 km/h 15.6 km/h 58 % 0 mm
20:02 -8.8 °C -13.4 °C 34750.5 hPa SW 5.1 km/h 15.6 km/h 58 % 0 mm
20:12 -8.9 °C -13.4 °C 34760.7 hPa WSW 10.3 km/h 15.6 km/h 59 % 0 mm
20:17 -9.1 °C -13.5 °C 34760.7 hPa West 5.1 km/h 12.9 km/h 59 % 0 mm
20:22 -9.2 °C -13.4 °C 34760.7 hPa WSW 7.7 km/h 12.9 km/h 60 % 0 mm
20:32 -9.3 °C -13.5 °C 34760.7 hPa SW 7.7 km/h 15.6 km/h 61 % 0 mm
20:42 -9.5 °C -13.5 °C 34760.7 hPa WSW 2.6 km/h 15.6 km/h 62 % 0 mm
20:47 -9.6 °C -13.5 °C 34774.2 hPa West 5.1 km/h 12.9 km/h 63 % 0 mm
20:52 -9.7 °C -13.6 °C 34774.2 hPa West 5.1 km/h 12.9 km/h 63 % 0 mm
21:02 -9.8 °C -13.5 °C 34774.2 hPa West 5.1 km/h 7.7 km/h 64 % 0 mm
21:12 -10.1 °C -13.5 °C 34774.2 hPa West 2.6 km/h 7.7 km/h 66 % 0 mm
21:17 -10.2 °C -13.5 °C 34774.2 hPa West 2.6 km/h 7.7 km/h 67 % 0 mm
21:22 -10.2 °C -13.4 °C 34774.2 hPa West 2.6 km/h 5.1 km/h 68 % 0 mm
21:32 -10.3 °C -13.6 °C 34784.4 hPa Calm   2.6 km/h 68 % 0 mm
21:42 -10.6 °C -13.7 °C 34797.9 hPa Calm   2.6 km/h 69 % 0 mm
21:52 -10.6 °C -13.6 °C 34797.9 hPa Calm     70 % 0 mm
21:57 -10.6 °C -13.5 °C 34797.9 hPa Calm     70 % 0 mm
22:02 -10.6 °C -13.5 °C 34797.9 hPa Calm     70 % 0 mm
22:12 -10.7 °C -13.6 °C 34797.9 hPa Calm     71 % 0 mm
22:17 -10.8 °C -13.6 °C 34797.9 hPa West 2.6 km/h 2.6 km/h 71 % 0 mm
22:22 -10.8 °C -13.6 °C 34797.9 hPa West 2.6 km/h 2.6 km/h 71 % 0 mm
22:27 -10.9 °C -13.6 °C 34797.9 hPa Calm   5.1 km/h 72 % 0 mm
22:32 -11 °C -13.7 °C 34797.9 hPa Calm   5.1 km/h 72 % 0 mm
22:42 -11.4 °C -13.8 °C 34808.1 hPa West 2.6 km/h 2.6 km/h 75 % 0 mm
22:47 -11.5 °C -13.8 °C 34808.1 hPa West 2.6 km/h 2.6 km/h 76 % 0 mm
22:52 -11.6 °C -13.9 °C 34808.1 hPa Calm   2.6 km/h 76 % 0 mm
22:57 -11.7 °C -13.8 °C 34808.1 hPa Calm   2.6 km/h 77 % 0 mm
23:02 -11.7 °C -13.9 °C 34808.1 hPa Calm   2.6 km/h 77 % 0 mm
23:12 -11.8 °C -13.9 °C 34808.1 hPa Calm   2.6 km/h 77 % 0 mm
23:17 -11.9 °C -13.9 °C 34808.1 hPa Calm   2.6 km/h 78 % 0 mm
23:22 -11.9 °C -14 °C 34808.1 hPa Calm     78 % 0 mm
23:32 -12.2 °C -14.1 °C 34808.1 hPa Calm   2.6 km/h 79 % 0 mm
23:42 -12.4 °C -14.1 °C 34808.1 hPa Calm     81 % 0 mm
23:47 -12.4 °C -14 °C 34808.1 hPa Calm     82 % 0 mm
23:52 -12.3 °C -13.9 °C 34808.1 hPa Calm     82 % 0 mm
23:57 -12.2 °C -13.9 °C 34808.1 hPa Calm   2.6 km/h 81 % 0 mm
Meteo18
Compliments of Weather Underground - 4 mb

Script developed by  Jim McMurry - jmcmurry@mwt.net Adapted for the template by  Wim van der Kuil - Leuven-Template.eu

You find our weather info also at:

European Weather Network

Weather Underground

Equipment we use:

Weather-station
Davis Vue

Weather-program
Meteobridge

Weather-server
Raspberry PI 2 B+

Provider
1 and 1

Davis Vue

Meteobridge

Raspberry PI 2 B+

1 and 1